createdAt,value
2023-03-14T00:07:25.932Z,9.23
2023-03-14T00:17:31.385Z,9.32
2023-03-14T00:27:33.668Z,13.23
2023-03-14T00:37:40.792Z,12.45
2023-03-14T00:47:46.691Z,11.02
2023-03-14T00:57:49.219Z,10.70
2023-03-14T01:07:55.022Z,11.07
2023-03-14T01:18:01.581Z,10.95
2023-03-14T01:28:06.940Z,8.43
2023-03-14T01:38:13.077Z,8.83
2023-03-14T01:48:17.468Z,8.50
2023-03-14T01:58:21.269Z,10.00
2023-03-14T02:08:27.650Z,9.53
2023-03-14T02:18:34.322Z,9.30
2023-03-14T02:29:11.008Z,8.43
2023-03-14T02:39:23.680Z,8.90
2023-03-14T02:49:28.610Z,9.50
2023-03-14T02:59:30.763Z,8.50
2023-03-14T03:09:36.957Z,9.53
2023-03-14T03:19:39.073Z,9.77
2023-03-14T03:29:43.598Z,9.57
2023-03-14T03:39:46.342Z,7.70
2023-03-14T03:49:50.641Z,7.30
2023-03-14T03:59:52.780Z,5.37
2023-03-14T04:10:01.927Z,6.40
2023-03-14T04:20:17.086Z,7.53
2023-03-14T04:30:24.837Z,7.43
2023-03-14T04:40:44.779Z,5.70
2023-03-14T04:50:49.810Z,5.77
2023-03-14T05:00:53.958Z,6.17
2023-03-14T05:11:15.681Z,8.13
2023-03-14T05:21:50.354Z,6.03
2023-03-14T05:32:14.108Z,4.03
2023-03-14T05:42:49.565Z,5.60
2023-03-14T05:53:16.621Z,5.93
2023-03-14T06:03:44.857Z,5.22
2023-03-14T06:13:47.653Z,5.70
2023-03-14T06:23:52.693Z,5.75
2023-03-14T06:34:00.473Z,5.88
2023-03-14T06:44:06.400Z,4.80
2023-03-14T06:54:11.570Z,6.00
2023-03-14T07:04:19.138Z,5.32
2023-03-14T07:14:26.567Z,4.40
2023-03-14T07:24:32.423Z,8.52
2023-03-14T07:34:38.542Z,5.07
2023-03-14T07:44:43.204Z,4.88
2023-03-14T07:54:47.704Z,4.75
2023-03-14T08:04:55.907Z,5.47
2023-03-14T08:15:00.841Z,6.57
2023-03-14T08:25:10.575Z,6.15
2023-03-14T08:35:15.798Z,6.78
2023-03-14T08:45:18.534Z,6.00
2023-03-14T08:55:23.052Z,5.45
2023-03-14T09:05:25.253Z,5.10
2023-03-14T09:15:29.883Z,4.75
2023-03-14T09:25:31.992Z,5.05
2023-03-14T09:35:35.245Z,5.20
2023-03-14T09:45:41.756Z,4.43
2023-03-14T09:55:46.994Z,4.32
2023-03-14T10:05:49.427Z,6.28
2023-03-14T10:15:57.062Z,6.75
2023-03-14T10:26:15.941Z,4.93
2023-03-14T10:36:45.365Z,5.35
2023-03-14T10:46:55.608Z,4.13
2023-03-14T10:57:08.410Z,7.80
2023-03-14T11:07:28.592Z,5.50
2023-03-14T11:17:53.211Z,6.63
2023-03-14T11:27:58.279Z,4.80
2023-03-14T11:38:15.948Z,4.18
2023-03-14T11:48:20.011Z,7.70
2023-03-14T11:58:28.602Z,6.50
2023-03-14T12:08:46.565Z,4.60
2023-03-14T12:18:48.728Z,5.95
2023-03-14T12:28:53.147Z,4.63
2023-03-14T12:39:02.689Z,6.40
2023-03-14T12:49:09.930Z,8.73
2023-03-14T12:59:47.204Z,7.45
2023-03-14T13:10:06.497Z,6.93
2023-03-14T13:20:28.836Z,9.10
2023-03-14T13:30:49.402Z,9.98
2023-03-14T13:41:00.462Z,7.82
2023-03-14T13:51:12.313Z,6.70
2023-03-14T14:01:23.345Z,11.30
2023-03-14T14:11:48.914Z,14.82
2023-03-14T14:21:56.234Z,9.60
2023-03-14T14:32:16.572Z,7.78
2023-03-14T14:42:26.245Z,9.88
2023-03-14T14:52:40.682Z,6.60
2023-03-14T15:02:50.468Z,7.40
2023-03-14T15:12:57.224Z,10.52
2023-03-14T15:23:04.270Z,8.13
2023-03-14T15:33:09.946Z,6.32
2023-03-14T15:43:12.644Z,9.20
2023-03-14T15:53:17.423Z,7.78
2023-03-14T16:03:25.602Z,8.25
2023-03-14T16:13:32.493Z,9.95
2023-03-14T16:23:39.596Z,9.90
2023-03-14T16:33:41.869Z,8.27
2023-03-14T16:43:53.257Z,8.32
2023-03-14T16:53:55.505Z,10.88
2023-03-14T17:03:58.646Z,7.60
2023-03-14T17:14:02.816Z,10.70
2023-03-14T17:24:10.500Z,11.55
2023-03-14T17:34:15.329Z,13.32
2023-03-14T17:44:22.760Z,10.13
2023-03-14T17:54:24.992Z,11.20
2023-03-14T18:04:33.025Z,10.82
2023-03-14T18:14:40.328Z,14.00
2023-03-14T18:24:45.945Z,9.80
2023-03-14T18:34:52.198Z,7.60
2023-03-14T18:44:59.441Z,8.30
2023-03-14T18:55:08.680Z,8.50
2023-03-14T19:05:15.608Z,7.55
2023-03-14T19:15:20.134Z,8.43
2023-03-14T19:25:22.489Z,8.98
2023-03-14T19:35:24.702Z,11.82
2023-03-14T19:45:32.891Z,8.68
2023-03-14T19:55:38.354Z,8.68
2023-03-14T20:05:45.000Z,8.60
2023-03-14T20:15:53.380Z,10.20
2023-03-14T20:25:59.238Z,11.07
2023-03-14T20:36:04.027Z,12.95
2023-03-14T20:46:11.062Z,10.38
2023-03-14T20:56:18.071Z,9.52
2023-03-14T21:06:23.461Z,11.90
2023-03-14T21:16:28.478Z,10.57
2023-03-14T21:26:35.154Z,10.63
2023-03-14T21:36:37.328Z,10.27
2023-03-14T21:46:41.569Z,9.88
2023-03-14T21:56:46.064Z,11.88
2023-03-14T22:06:52.272Z,12.65
2023-03-14T22:16:55.068Z,11.50
2023-03-14T22:27:00.299Z,8.40
2023-03-14T22:37:06.025Z,14.20
2023-03-14T22:47:14.373Z,9.88
2023-03-14T22:57:21.084Z,10.50
2023-03-14T23:07:27.703Z,9.27
2023-03-14T23:17:37.604Z,12.15
2023-03-14T23:27:46.643Z,9.18
2023-03-14T23:37:54.038Z,12.38
2023-03-14T23:47:58.091Z,12.02
2023-03-14T23:58:03.161Z,12.30
